sensor_id;sensor_type;location;lat;lon;timestamp;temperature;humidity
68235;DHT22;55052;52.056;5.296;2022-08-19T00:01:23;19.20;81.90
68235;DHT22;55052;52.056;5.296;2022-08-19T00:04:00;19.10;81.90
68235;DHT22;55052;52.056;5.296;2022-08-19T00:06:28;19.10;81.90
68235;DHT22;55052;52.056;5.296;2022-08-19T00:08:57;19.10;81.90
68235;DHT22;55052;52.056;5.296;2022-08-19T00:11:24;19.10;82.00
68235;DHT22;55052;52.056;5.296;2022-08-19T00:13:53;19.00;81.90
68235;DHT22;55052;52.056;5.296;2022-08-19T00:16:23;19.00;81.90
68235;DHT22;55052;52.056;5.296;2022-08-19T00:18:55;19.00;82.00
68235;DHT22;55052;52.056;5.296;2022-08-19T00:21:24;19.00;82.10
68235;DHT22;55052;52.056;5.296;2022-08-19T00:23:51;18.90;82.10
68235;DHT22;55052;52.056;5.296;2022-08-19T00:26:17;18.90;82.10
68235;DHT22;55052;52.056;5.296;2022-08-19T00:28:44;18.90;82.10
68235;DHT22;55052;52.056;5.296;2022-08-19T00:31:11;18.90;82.10
68235;DHT22;55052;52.056;5.296;2022-08-19T00:33:38;18.80;82.10
68235;DHT22;55052;52.056;5.296;2022-08-19T00:36:07;18.80;82.10
68235;DHT22;55052;52.056;5.296;2022-08-19T00:38:36;18.80;82.20
68235;DHT22;55052;52.056;5.296;2022-08-19T00:41:07;18.80;82.20
68235;DHT22;55052;52.056;5.296;2022-08-19T00:43:34;18.80;82.20
68235;DHT22;55052;52.056;5.296;2022-08-19T00:46:00;18.70;82.20
68235;DHT22;55052;52.056;5.296;2022-08-19T00:48:32;18.70;82.20
68235;DHT22;55052;52.056;5.296;2022-08-19T00:51:00;18.70;82.20
68235;DHT22;55052;52.056;5.296;2022-08-19T00:53:28;18.70;82.20
68235;DHT22;55052;52.056;5.296;2022-08-19T00:55:58;18.70;82.20
68235;DHT22;55052;52.056;5.296;2022-08-19T00:58:30;18.70;82.20
68235;DHT22;55052;52.056;5.296;2022-08-19T01:00:57;18.60;82.10
68235;DHT22;55052;52.056;5.296;2022-08-19T01:03:24;18.50;81.90
68235;DHT22;55052;52.056;5.296;2022-08-19T01:05:52;18.50;81.90
68235;DHT22;55052;52.056;5.296;2022-08-19T01:08:20;18.50;82.00
68235;DHT22;55052;52.056;5.296;2022-08-19T01:10:52;18.40;82.80
68235;DHT22;55052;52.056;5.296;2022-08-19T01:13:21;18.40;82.10
68235;DHT22;55052;52.056;5.296;2022-08-19T01:15:53;18.40;82.10
68235;DHT22;55052;52.056;5.296;2022-08-19T01:18:21;18.40;82.10
68235;DHT22;55052;52.056;5.296;2022-08-19T01:20:49;18.30;82.10
68235;DHT22;55052;52.056;5.296;2022-08-19T01:23:18;18.30;82.20
68235;DHT22;55052;52.056;5.296;2022-08-19T01:25:50;18.30;82.20
68235;DHT22;55052;52.056;5.296;2022-08-19T01:28:20;18.30;82.30
68235;DHT22;55052;52.056;5.296;2022-08-19T01:31:06;18.20;82.30
68235;DHT22;55052;52.056;5.296;2022-08-19T01:33:34;18.20;82.20
68235;DHT22;55052;52.056;5.296;2022-08-19T01:36:26;18.20;82.30
68235;DHT22;55052;52.056;5.296;2022-08-19T01:38:54;18.10;82.30
68235;DHT22;55052;52.056;5.296;2022-08-19T01:41:21;18.10;82.40
68235;DHT22;55052;52.056;5.296;2022-08-19T01:43:50;18.10;82.40
68235;DHT22;55052;52.056;5.296;2022-08-19T01:46:37;18.00;82.50
68235;DHT22;55052;52.056;5.296;2022-08-19T01:49:05;18.00;82.50
68235;DHT22;55052;52.056;5.296;2022-08-19T01:51:32;18.00;82.50
68235;DHT22;55052;52.056;5.296;2022-08-19T01:54:06;18.00;82.50
68235;DHT22;55052;52.056;5.296;2022-08-19T01:56:33;17.90;82.50
68235;DHT22;55052;52.056;5.296;2022-08-19T01:59:03;17.90;82.50
68235;DHT22;55052;52.056;5.296;2022-08-19T02:01:32;17.90;82.50
68235;DHT22;55052;52.056;5.296;2022-08-19T02:03:59;17.90;82.70
68235;DHT22;55052;52.056;5.296;2022-08-19T02:06:28;17.80;82.70
68235;DHT22;55052;52.056;5.296;2022-08-19T02:08:55;17.80;82.70
68235;DHT22;55052;52.056;5.296;2022-08-19T02:11:29;17.80;82.80
68235;DHT22;55052;52.056;5.296;2022-08-19T02:13:59;17.80;82.80
68235;DHT22;55052;52.056;5.296;2022-08-19T02:16:26;17.80;82.90
68235;DHT22;55052;52.056;5.296;2022-08-19T02:18:53;17.80;82.90
68235;DHT22;55052;52.056;5.296;2022-08-19T02:21:21;17.80;82.90
68235;DHT22;55052;52.056;5.296;2022-08-19T02:23:49;17.80;82.90
68235;DHT22;55052;52.056;5.296;2022-08-19T02:26:17;17.80;82.90
68235;DHT22;55052;52.056;5.296;2022-08-19T02:28:44;17.70;82.90
68235;DHT22;55052;52.056;5.296;2022-08-19T02:31:19;17.70;83.00
68235;DHT22;55052;52.056;5.296;2022-08-19T02:33:46;17.70;83.10
68235;DHT22;55052;52.056;5.296;2022-08-19T02:36:15;17.70;83.10
68235;DHT22;55052;52.056;5.296;2022-08-19T02:38:46;17.70;83.20
68235;DHT22;55052;52.056;5.296;2022-08-19T02:41:24;17.70;83.20
68235;DHT22;55052;52.056;5.296;2022-08-19T02:43:53;17.70;83.30
68235;DHT22;55052;52.056;5.296;2022-08-19T02:46:40;17.70;83.30
68235;DHT22;55052;52.056;5.296;2022-08-19T02:49:07;17.60;83.20
68235;DHT22;55052;52.056;5.296;2022-08-19T02:51:39;17.60;83.20
68235;DHT22;55052;52.056;5.296;2022-08-19T02:54:07;17.60;83.30
68235;DHT22;55052;52.056;5.296;2022-08-19T02:56:36;17.60;83.30
68235;DHT22;55052;52.056;5.296;2022-08-19T02:59:03;17.60;83.20
68235;DHT22;55052;52.056;5.296;2022-08-19T03:01:39;17.50;83.10
68235;DHT22;55052;52.056;5.296;2022-08-19T03:04:08;17.50;83.00
68235;DHT22;55052;52.056;5.296;2022-08-19T03:06:37;17.40;82.90
68235;DHT22;55052;52.056;5.296;2022-08-19T03:09:04;17.40;82.90
68235;DHT22;55052;52.056;5.296;2022-08-19T03:11:32;17.40;82.90
68235;DHT22;55052;52.056;5.296;2022-08-19T03:14:01;17.40;82.90
68235;DHT22;55052;52.056;5.296;2022-08-19T03:16:31;17.30;82.90
68235;DHT22;55052;52.056;5.296;2022-08-19T03:18:59;17.30;82.90
68235;DHT22;55052;52.056;5.296;2022-08-19T03:21:29;17.30;83.00
68235;DHT22;55052;52.056;5.296;2022-08-19T03:23:58;17.20;82.90
68235;DHT22;55052;52.056;5.296;2022-08-19T03:26:25;17.20;82.80
68235;DHT22;55052;52.056;5.296;2022-08-19T03:28:52;17.20;82.90
68235;DHT22;55052;52.056;5.296;2022-08-19T03:31:26;17.20;82.90
68235;DHT22;55052;52.056;5.296;2022-08-19T03:34:16;17.10;82.80
68235;DHT22;55052;52.056;5.296;2022-08-19T03:36:44;17.10;82.90
68235;DHT22;55052;52.056;5.296;2022-08-19T03:39:11;17.10;82.90
68235;DHT22;55052;52.056;5.296;2022-08-19T03:41:40;17.10;82.90
68235;DHT22;55052;52.056;5.296;2022-08-19T03:44:11;17.00;82.80
68235;DHT22;55052;52.056;5.296;2022-08-19T03:46:43;17.00;82.90
68235;DHT22;55052;52.056;5.296;2022-08-19T03:49:10;17.00;83.00
68235;DHT22;55052;52.056;5.296;2022-08-19T03:51:41;17.00;83.00
68235;DHT22;55052;52.056;5.296;2022-08-19T03:54:11;16.90;83.00
68235;DHT22;55052;52.056;5.296;2022-08-19T03:56:40;16.90;83.00
68235;DHT22;55052;52.056;5.296;2022-08-19T03:59:09;16.90;83.10
68235;DHT22;55052;52.056;5.296;2022-08-19T04:01:37;16.90;83.20
68235;DHT22;55052;52.056;5.296;2022-08-19T04:04:04;16.90;83.30
68235;DHT22;55052;52.056;5.296;2022-08-19T04:06:34;16.80;84.00
68235;DHT22;55052;52.056;5.296;2022-08-19T04:09:08;16.90;83.30
68235;DHT22;55052;52.056;5.296;2022-08-19T04:11:40;16.80;83.30
68235;DHT22;55052;52.056;5.296;2022-08-19T04:14:13;16.80;83.30
68235;DHT22;55052;52.056;5.296;2022-08-19T04:16:40;16.80;83.30
68235;DHT22;55052;52.056;5.296;2022-08-19T04:19:07;16.70;83.30
68235;DHT22;55052;52.056;5.296;2022-08-19T04:21:34;16.70;83.40
68235;DHT22;55052;52.056;5.296;2022-08-19T04:24:02;16.70;83.40
68235;DHT22;55052;52.056;5.296;2022-08-19T04:26:33;16.70;83.30
68235;DHT22;55052;52.056;5.296;2022-08-19T04:29:03;16.70;83.30
68235;DHT22;55052;52.056;5.296;2022-08-19T04:31:37;16.60;83.30
68235;DHT22;55052;52.056;5.296;2022-08-19T04:34:07;16.60;83.40
68235;DHT22;55052;52.056;5.296;2022-08-19T04:36:36;16.60;83.50
68235;DHT22;55052;52.056;5.296;2022-08-19T04:39:07;16.60;83.50
68235;DHT22;55052;52.056;5.296;2022-08-19T04:41:34;16.60;83.50
68235;DHT22;55052;52.056;5.296;2022-08-19T04:44:20;16.60;83.50
68235;DHT22;55052;52.056;5.296;2022-08-19T04:46:48;16.50;83.50
68235;DHT22;55052;52.056;5.296;2022-08-19T04:49:19;16.50;83.60
68235;DHT22;55052;52.056;5.296;2022-08-19T04:51:49;16.60;83.70
68235;DHT22;55052;52.056;5.296;2022-08-19T04:54:17;16.50;83.70
68235;DHT22;55052;52.056;5.296;2022-08-19T04:57:06;16.50;83.70
68235;DHT22;55052;52.056;5.296;2022-08-19T04:59:34;16.60;83.80
68235;DHT22;55052;52.056;5.296;2022-08-19T05:02:01;16.50;83.70
68235;DHT22;55052;52.056;5.296;2022-08-19T05:04:28;16.50;83.70
68235;DHT22;55052;52.056;5.296;2022-08-19T05:06:58;16.50;83.70
68235;DHT22;55052;52.056;5.296;2022-08-19T05:09:27;16.50;83.90
68235;DHT22;55052;52.056;5.296;2022-08-19T05:12:14;16.50;84.00
68235;DHT22;55052;52.056;5.296;2022-08-19T05:14:42;16.50;84.10
68235;DHT22;55052;52.056;5.296;2022-08-19T05:17:09;16.50;84.10
68235;DHT22;55052;52.056;5.296;2022-08-19T05:19:53;16.50;84.20
68235;DHT22;55052;52.056;5.296;2022-08-19T05:22:40;16.50;84.30
68235;DHT22;55052;52.056;5.296;2022-08-19T05:25:13;16.60;84.40
68235;DHT22;55052;52.056;5.296;2022-08-19T05:27:41;16.60;84.40
68235;DHT22;55052;52.056;5.296;2022-08-19T05:30:10;16.70;84.60
68235;DHT22;55052;52.056;5.296;2022-08-19T05:32:38;16.70;84.70
68235;DHT22;55052;52.056;5.296;2022-08-19T05:35:06;16.70;84.70
68235;DHT22;55052;52.056;5.296;2022-08-19T05:37:32;16.70;84.80
68235;DHT22;55052;52.056;5.296;2022-08-19T05:39:59;16.80;85.00
68235;DHT22;55052;52.056;5.296;2022-08-19T05:42:26;16.80;85.00
68235;DHT22;55052;52.056;5.296;2022-08-19T05:44:53;16.80;85.10
68235;DHT22;55052;52.056;5.296;2022-08-19T05:47:20;16.90;85.20
68235;DHT22;55052;52.056;5.296;2022-08-19T05:49:47;16.90;85.30
68235;DHT22;55052;52.056;5.296;2022-08-19T05:52:16;16.90;85.40
68235;DHT22;55052;52.056;5.296;2022-08-19T05:54:45;17.00;85.50
68235;DHT22;55052;52.056;5.296;2022-08-19T05:57:18;17.00;85.70
68235;DHT22;55052;52.056;5.296;2022-08-19T05:59:45;17.10;85.80
68235;DHT22;55052;52.056;5.296;2022-08-19T06:02:27;17.10;85.90
68235;DHT22;55052;52.056;5.296;2022-08-19T06:04:54;17.20;86.10
68235;DHT22;55052;52.056;5.296;2022-08-19T06:07:21;17.20;86.30
68235;DHT22;55052;52.056;5.296;2022-08-19T06:09:48;17.30;86.50
68235;DHT22;55052;52.056;5.296;2022-08-19T06:12:27;17.40;86.70
68235;DHT22;55052;52.056;5.296;2022-08-19T06:14:55;17.50;87.00
68235;DHT22;55052;52.056;5.296;2022-08-19T06:17:28;17.50;87.10
68235;DHT22;55052;52.056;5.296;2022-08-19T06:19:57;17.60;87.30
68235;DHT22;55052;52.056;5.296;2022-08-19T06:22:25;17.70;87.60
68235;DHT22;55052;52.056;5.296;2022-08-19T06:24:53;17.80;88.00
68235;DHT22;55052;52.056;5.296;2022-08-19T06:27:21;17.90;88.20
68235;DHT22;55052;52.056;5.296;2022-08-19T06:29:48;17.90;88.40
68235;DHT22;55052;52.056;5.296;2022-08-19T06:32:16;18.10;88.60
68235;DHT22;55052;52.056;5.296;2022-08-19T06:34:45;18.10;88.70
68235;DHT22;55052;52.056;5.296;2022-08-19T06:37:12;18.20;88.70
68235;DHT22;55052;52.056;5.296;2022-08-19T06:39:40;18.30;88.90
68235;DHT22;55052;52.056;5.296;2022-08-19T06:42:07;18.40;89.00
68235;DHT22;55052;52.056;5.296;2022-08-19T06:44:38;18.50;89.10
68235;DHT22;55052;52.056;5.296;2022-08-19T06:47:13;18.60;89.60
68235;DHT22;55052;52.056;5.296;2022-08-19T06:49:58;18.60;89.30
68235;DHT22;55052;52.056;5.296;2022-08-19T06:52:33;18.70;89.60
68235;DHT22;55052;52.056;5.296;2022-08-19T06:55:02;18.80;89.90
68235;DHT22;55052;52.056;5.296;2022-08-19T06:57:32;18.90;90.00
68235;DHT22;55052;52.056;5.296;2022-08-19T07:00:00;18.90;90.10
68235;DHT22;55052;52.056;5.296;2022-08-19T07:02:26;19.10;90.10
68235;DHT22;55052;52.056;5.296;2022-08-19T07:04:53;19.10;90.20
68235;DHT22;55052;52.056;5.296;2022-08-19T07:07:23;19.20;90.10
68235;DHT22;55052;52.056;5.296;2022-08-19T07:09:50;19.20;90.10
68235;DHT22;55052;52.056;5.296;2022-08-19T07:12:29;19.30;90.10
68235;DHT22;55052;52.056;5.296;2022-08-19T07:14:58;19.40;90.00
68235;DHT22;55052;52.056;5.296;2022-08-19T07:17:25;19.40;89.80
68235;DHT22;55052;52.056;5.296;2022-08-19T07:19:52;19.50;89.70
68235;DHT22;55052;52.056;5.296;2022-08-19T07:22:21;19.50;89.60
68235;DHT22;55052;52.056;5.296;2022-08-19T07:24:50;19.60;89.40
68235;DHT22;55052;52.056;5.296;2022-08-19T07:27:18;19.60;89.30
68235;DHT22;55052;52.056;5.296;2022-08-19T07:29:52;19.70;89.20
68235;DHT22;55052;52.056;5.296;2022-08-19T07:32:21;19.70;88.90
68235;DHT22;55052;52.056;5.296;2022-08-19T07:34:48;19.80;88.80
68235;DHT22;55052;52.056;5.296;2022-08-19T07:37:16;19.80;88.80
68235;DHT22;55052;52.056;5.296;2022-08-19T07:39:42;19.80;88.70
68235;DHT22;55052;52.056;5.296;2022-08-19T07:42:11;19.90;88.50
68235;DHT22;55052;52.056;5.296;2022-08-19T07:44:39;19.90;88.40
68235;DHT22;55052;52.056;5.296;2022-08-19T07:47:11;19.90;88.10
68235;DHT22;55052;52.056;5.296;2022-08-19T07:50:03;20.00;88.00
68235;DHT22;55052;52.056;5.296;2022-08-19T07:52:33;20.00;88.00
68235;DHT22;55052;52.056;5.296;2022-08-19T07:55:04;20.00;87.80
68235;DHT22;55052;52.056;5.296;2022-08-19T07:57:31;20.00;87.80
68235;DHT22;55052;52.056;5.296;2022-08-19T07:59:58;20.10;87.70
68235;DHT22;55052;52.056;5.296;2022-08-19T08:02:25;20.10;87.70
68235;DHT22;55052;52.056;5.296;2022-08-19T08:04:52;20.20;87.80
68235;DHT22;55052;52.056;5.296;2022-08-19T08:07:38;20.20;86.80
68235;DHT22;55052;52.056;5.296;2022-08-19T08:10:24;20.30;87.20
68235;DHT22;55052;52.056;5.296;2022-08-19T08:12:52;20.40;87.10
68235;DHT22;55052;52.056;5.296;2022-08-19T08:15:37;20.40;86.60
68235;DHT22;55052;52.056;5.296;2022-08-19T08:18:10;20.40;86.40
68235;DHT22;55052;52.056;5.296;2022-08-19T08:20:37;20.50;86.30
68235;DHT22;55052;52.056;5.296;2022-08-19T08:23:05;20.50;85.90
68235;DHT22;55052;52.056;5.296;2022-08-19T08:25:55;20.60;85.90
68235;DHT22;55052;52.056;5.296;2022-08-19T08:28:24;20.60;85.90
68235;DHT22;55052;52.056;5.296;2022-08-19T08:30:55;20.70;85.60
68235;DHT22;55052;52.056;5.296;2022-08-19T08:33:25;20.80;85.60
68235;DHT22;55052;52.056;5.296;2022-08-19T08:36:07;20.80;85.30
68235;DHT22;55052;52.056;5.296;2022-08-19T08:38:35;21.00;85.20
68235;DHT22;55052;52.056;5.296;2022-08-19T08:43:55;21.10;84.90
68235;DHT22;55052;52.056;5.296;2022-08-19T08:46:40;21.20;84.90
68235;DHT22;55052;52.056;5.296;2022-08-19T08:52:25;21.40;84.10
68235;DHT22;55052;52.056;5.296;2022-08-19T08:55:00;21.40;83.50
68235;DHT22;55052;52.056;5.296;2022-08-19T09:00:38;21.60;82.60
68235;DHT22;55052;52.056;5.296;2022-08-19T09:03:21;21.60;81.90
68235;DHT22;55052;52.056;5.296;2022-08-19T09:06:05;21.70;81.40
68235;DHT22;55052;52.056;5.296;2022-08-19T09:17:09;22.00;80.10
68235;DHT22;55052;52.056;5.296;2022-08-19T09:19:46;22.00;79.90
68235;DHT22;55052;52.056;5.296;2022-08-19T09:22:15;22.10;79.60
68235;DHT22;55052;52.056;5.296;2022-08-19T09:24:52;22.20;80.00
68235;DHT22;55052;52.056;5.296;2022-08-19T09:27:20;22.30;79.00
68235;DHT22;55052;52.056;5.296;2022-08-19T09:30:13;22.30;78.70
68235;DHT22;55052;52.056;5.296;2022-08-19T09:32:42;22.30;77.30
68235;DHT22;55052;52.056;5.296;2022-08-19T09:35:10;22.30;77.80
68235;DHT22;55052;52.056;5.296;2022-08-19T09:37:37;22.30;77.50
68235;DHT22;55052;52.056;5.296;2022-08-19T09:40:06;22.30;77.30
68235;DHT22;55052;52.056;5.296;2022-08-19T09:42:37;22.30;77.30
68235;DHT22;55052;52.056;5.296;2022-08-19T09:45:17;22.40;77.60
68235;DHT22;55052;52.056;5.296;2022-08-19T09:47:44;22.40;77.50
68235;DHT22;55052;52.056;5.296;2022-08-19T09:50:13;22.50;77.60
68235;DHT22;55052;52.056;5.296;2022-08-19T09:52:42;22.60;77.60
68235;DHT22;55052;52.056;5.296;2022-08-19T09:55:24;22.70;77.60
68235;DHT22;55052;52.056;5.296;2022-08-19T09:58:00;22.80;76.80
68235;DHT22;55052;52.056;5.296;2022-08-19T10:00:27;22.90;76.40
68235;DHT22;55052;52.056;5.296;2022-08-19T10:02:54;23.00;75.50
68235;DHT22;55052;52.056;5.296;2022-08-19T10:05:21;23.00;75.00
68235;DHT22;55052;52.056;5.296;2022-08-19T10:08:08;23.10;75.70
68235;DHT22;55052;52.056;5.296;2022-08-19T10:10:42;23.10;75.10
68235;DHT22;55052;52.056;5.296;2022-08-19T10:13:15;23.20;75.10
68235;DHT22;55052;52.056;5.296;2022-08-19T10:15:42;23.30;75.40
68235;DHT22;55052;52.056;5.296;2022-08-19T10:18:14;23.40;75.20
68235;DHT22;55052;52.056;5.296;2022-08-19T10:20:41;23.40;75.10
68235;DHT22;55052;52.056;5.296;2022-08-19T10:23:09;23.50;75.00
68235;DHT22;55052;52.056;5.296;2022-08-19T10:25:36;23.50;75.30
68235;DHT22;55052;52.056;5.296;2022-08-19T10:28:04;23.60;75.50
68235;DHT22;55052;52.056;5.296;2022-08-19T10:30:36;23.60;75.10
68235;DHT22;55052;52.056;5.296;2022-08-19T10:33:04;23.60;75.00
68235;DHT22;55052;52.056;5.296;2022-08-19T10:35:36;23.60;75.10
68235;DHT22;55052;52.056;5.296;2022-08-19T10:38:23;23.70;75.30
68235;DHT22;55052;52.056;5.296;2022-08-19T10:40:57;23.70;75.70
68235;DHT22;55052;52.056;5.296;2022-08-19T10:43:24;23.80;75.70
68235;DHT22;55052;52.056;5.296;2022-08-19T10:45:53;23.80;75.20
68235;DHT22;55052;52.056;5.296;2022-08-19T10:48:22;23.90;75.20
68235;DHT22;55052;52.056;5.296;2022-08-19T10:50:49;23.90;75.20
68235;DHT22;55052;52.056;5.296;2022-08-19T10:53:34;24.00;75.00
68235;DHT22;55052;52.056;5.296;2022-08-19T10:56:01;24.00;74.70
68235;DHT22;55052;52.056;5.296;2022-08-19T10:58:47;24.00;74.60
68235;DHT22;55052;52.056;5.296;2022-08-19T11:01:14;24.00;74.60
68235;DHT22;55052;52.056;5.296;2022-08-19T11:03:41;24.00;74.50
68235;DHT22;55052;52.056;5.296;2022-08-19T11:06:08;24.10;74.30
68235;DHT22;55052;52.056;5.296;2022-08-19T11:08:36;24.10;74.20
68235;DHT22;55052;52.056;5.296;2022-08-19T11:11:06;24.10;74.10
68235;DHT22;55052;52.056;5.296;2022-08-19T11:13:35;24.10;74.40
68235;DHT22;55052;52.056;5.296;2022-08-19T11:16:12;24.10;74.40
68235;DHT22;55052;52.056;5.296;2022-08-19T11:18:45;24.20;74.50
68235;DHT22;55052;52.056;5.296;2022-08-19T11:21:21;24.30;74.50
68235;DHT22;55052;52.056;5.296;2022-08-19T11:23:50;24.30;74.50
68235;DHT22;55052;52.056;5.296;2022-08-19T11:26:18;24.40;74.20
68235;DHT22;55052;52.056;5.296;2022-08-19T11:28:46;24.50;74.60
68235;DHT22;55052;52.056;5.296;2022-08-19T11:31:16;24.60;74.00
68235;DHT22;55052;52.056;5.296;2022-08-19T11:33:44;24.60;74.20
68235;DHT22;55052;52.056;5.296;2022-08-19T11:36:13;24.70;73.70
68235;DHT22;55052;52.056;5.296;2022-08-19T11:38:41;24.80;72.80
68235;DHT22;55052;52.056;5.296;2022-08-19T11:41:08;24.90;72.60
68235;DHT22;55052;52.056;5.296;2022-08-19T11:43:35;24.90;73.10
68235;DHT22;55052;52.056;5.296;2022-08-19T11:46:07;25.00;72.60
68235;DHT22;55052;52.056;5.296;2022-08-19T11:48:35;25.00;71.90
68235;DHT22;55052;52.056;5.296;2022-08-19T11:51:08;25.10;72.00
68235;DHT22;55052;52.056;5.296;2022-08-19T11:53:36;25.20;72.00
68235;DHT22;55052;52.056;5.296;2022-08-19T11:56:07;25.30;71.80
68235;DHT22;55052;52.056;5.296;2022-08-19T11:58:34;25.40;70.90
68235;DHT22;55052;52.056;5.296;2022-08-19T12:01:05;25.40;70.70
68235;DHT22;55052;52.056;5.296;2022-08-19T12:03:33;25.50;70.70
68235;DHT22;55052;52.056;5.296;2022-08-19T12:06:08;25.40;70.70
68235;DHT22;55052;52.056;5.296;2022-08-19T12:08:36;25.50;70.30
68235;DHT22;55052;52.056;5.296;2022-08-19T12:11:02;25.40;70.40
68235;DHT22;55052;52.056;5.296;2022-08-19T12:13:30;25.40;70.50
68235;DHT22;55052;52.056;5.296;2022-08-19T12:15:57;25.40;70.30
68235;DHT22;55052;52.056;5.296;2022-08-19T12:18:24;25.40;70.40
68235;DHT22;55052;52.056;5.296;2022-08-19T12:20:53;25.40;70.20
68235;DHT22;55052;52.056;5.296;2022-08-19T12:23:21;25.50;70.20
68235;DHT22;55052;52.056;5.296;2022-08-19T12:25:48;25.50;70.50
68235;DHT22;55052;52.056;5.296;2022-08-19T12:28:23;25.50;70.10
68235;DHT22;55052;52.056;5.296;2022-08-19T12:30:50;25.60;69.90
68235;DHT22;55052;52.056;5.296;2022-08-19T12:33:20;25.70;70.00
68235;DHT22;55052;52.056;5.296;2022-08-19T12:35:51;25.80;69.40
68235;DHT22;55052;52.056;5.296;2022-08-19T12:38:18;25.80;69.30
68235;DHT22;55052;52.056;5.296;2022-08-19T12:40:46;25.80;69.70
68235;DHT22;55052;52.056;5.296;2022-08-19T12:43:14;25.90;69.50
68235;DHT22;55052;52.056;5.296;2022-08-19T12:45:42;25.90;68.90
68235;DHT22;55052;52.056;5.296;2022-08-19T12:48:12;26.00;68.70
68235;DHT22;55052;52.056;5.296;2022-08-19T12:51:00;26.00;68.10
68235;DHT22;55052;52.056;5.296;2022-08-19T12:53:28;26.00;67.80
68235;DHT22;55052;52.056;5.296;2022-08-19T12:55:56;26.00;68.10
68235;DHT22;55052;52.056;5.296;2022-08-19T12:58:23;26.00;68.00
68235;DHT22;55052;52.056;5.296;2022-08-19T13:00:53;26.00;67.70
68235;DHT22;55052;52.056;5.296;2022-08-19T13:03:20;26.00;67.50
68235;DHT22;55052;52.056;5.296;2022-08-19T13:05:50;25.90;68.10
68235;DHT22;55052;52.056;5.296;2022-08-19T13:08:17;25.90;67.50
68235;DHT22;55052;52.056;5.296;2022-08-19T13:10:44;25.80;67.40
68235;DHT22;55052;52.056;5.296;2022-08-19T13:13:11;25.80;67.40
68235;DHT22;55052;52.056;5.296;2022-08-19T13:15:40;25.70;67.60
68235;DHT22;55052;52.056;5.296;2022-08-19T13:18:09;25.60;67.70
68235;DHT22;55052;52.056;5.296;2022-08-19T13:20:37;25.50;67.90
68235;DHT22;55052;52.056;5.296;2022-08-19T13:23:04;25.50;68.10
68235;DHT22;55052;52.056;5.296;2022-08-19T13:25:31;25.40;68.40
68235;DHT22;55052;52.056;5.296;2022-08-19T13:27:58;25.30;68.70
68235;DHT22;55052;52.056;5.296;2022-08-19T13:30:25;25.30;69.00
68235;DHT22;55052;52.056;5.296;2022-08-19T13:33:10;25.20;69.30
68235;DHT22;55052;52.056;5.296;2022-08-19T13:35:43;25.20;69.80
68235;DHT22;55052;52.056;5.296;2022-08-19T13:38:10;25.10;70.20
68235;DHT22;55052;52.056;5.296;2022-08-19T13:40:39;25.00;70.30
68235;DHT22;55052;52.056;5.296;2022-08-19T13:43:08;25.00;70.50
68235;DHT22;55052;52.056;5.296;2022-08-19T13:45:51;24.90;71.00
68235;DHT22;55052;52.056;5.296;2022-08-19T13:48:24;24.90;71.70
68235;DHT22;55052;52.056;5.296;2022-08-19T13:50:53;24.80;72.30
68235;DHT22;55052;52.056;5.296;2022-08-19T13:53:20;24.70;72.60
68235;DHT22;55052;52.056;5.296;2022-08-19T13:55:47;24.50;73.10
68235;DHT22;55052;52.056;5.296;2022-08-19T13:58:14;24.40;73.70
68235;DHT22;55052;52.056;5.296;2022-08-19T14:00:43;24.30;74.10
68235;DHT22;55052;52.056;5.296;2022-08-19T14:03:11;24.10;74.90
68235;DHT22;55052;52.056;5.296;2022-08-19T14:05:38;24.00;75.50
68235;DHT22;55052;52.056;5.296;2022-08-19T14:08:05;23.80;75.90
68235;DHT22;55052;52.056;5.296;2022-08-19T14:10:32;23.80;76.60
68235;DHT22;55052;52.056;5.296;2022-08-19T14:13:02;23.70;77.20
68235;DHT22;55052;52.056;5.296;2022-08-19T14:15:29;23.70;77.70
68235;DHT22;55052;52.056;5.296;2022-08-19T14:17:57;23.60;78.20
68235;DHT22;55052;52.056;5.296;2022-08-19T14:20:24;23.50;78.40
68235;DHT22;55052;52.056;5.296;2022-08-19T14:22:52;23.50;78.60
68235;DHT22;55052;52.056;5.296;2022-08-19T14:25:25;23.50;79.80
68235;DHT22;55052;52.056;5.296;2022-08-19T14:27:53;23.50;79.20
68235;DHT22;55052;52.056;5.296;2022-08-19T14:30:26;23.50;79.20
68235;DHT22;55052;52.056;5.296;2022-08-19T14:32:55;23.50;79.20
68235;DHT22;55052;52.056;5.296;2022-08-19T14:35:22;23.40;79.30
68235;DHT22;55052;52.056;5.296;2022-08-19T14:37:51;23.40;79.70
68235;DHT22;55052;52.056;5.296;2022-08-19T14:40:24;23.40;79.90
68235;DHT22;55052;52.056;5.296;2022-08-19T14:42:57;23.40;80.10
68235;DHT22;55052;52.056;5.296;2022-08-19T14:45:30;23.40;80.40
68235;DHT22;55052;52.056;5.296;2022-08-19T14:47:57;23.40;80.50
68235;DHT22;55052;52.056;5.296;2022-08-19T14:50:26;23.50;81.00
68235;DHT22;55052;52.056;5.296;2022-08-19T14:53:03;23.50;81.20
68235;DHT22;55052;52.056;5.296;2022-08-19T14:55:43;23.50;80.80
68235;DHT22;55052;52.056;5.296;2022-08-19T14:58:11;23.50;81.20
68235;DHT22;55052;52.056;5.296;2022-08-19T15:00:57;23.60;81.30
68235;DHT22;55052;52.056;5.296;2022-08-19T15:03:23;23.60;81.30
68235;DHT22;55052;52.056;5.296;2022-08-19T15:05:50;23.60;81.30
68235;DHT22;55052;52.056;5.296;2022-08-19T15:08:17;23.60;81.50
68235;DHT22;55052;52.056;5.296;2022-08-19T15:10:44;23.70;81.60
68235;DHT22;55052;52.056;5.296;2022-08-19T15:13:12;23.70;81.50
68235;DHT22;55052;52.056;5.296;2022-08-19T15:15:39;23.80;81.70
68235;DHT22;55052;52.056;5.296;2022-08-19T15:18:05;23.80;81.50
68235;DHT22;55052;52.056;5.296;2022-08-19T15:20:32;23.90;81.60
68235;DHT22;55052;52.056;5.296;2022-08-19T15:22:59;23.90;81.40
68235;DHT22;55052;52.056;5.296;2022-08-19T15:25:27;24.00;81.70
68235;DHT22;55052;52.056;5.296;2022-08-19T15:27:54;24.00;82.00
68235;DHT22;55052;52.056;5.296;2022-08-19T15:30:25;24.10;82.00
68235;DHT22;55052;52.056;5.296;2022-08-19T15:32:55;24.20;82.50
68235;DHT22;55052;52.056;5.296;2022-08-19T15:35:23;24.20;82.60
68235;DHT22;55052;52.056;5.296;2022-08-19T15:37:51;24.30;82.30
68235;DHT22;55052;52.056;5.296;2022-08-19T15:40:19;24.40;82.40
68235;DHT22;55052;52.056;5.296;2022-08-19T15:42:46;24.40;81.70
68235;DHT22;55052;52.056;5.296;2022-08-19T15:45:17;24.50;80.80
68235;DHT22;55052;52.056;5.296;2022-08-19T15:47:44;24.50;80.20
68235;DHT22;55052;52.056;5.296;2022-08-19T15:50:18;24.50;80.20
68235;DHT22;55052;52.056;5.296;2022-08-19T15:55:18;24.50;80.10
68235;DHT22;55052;52.056;5.296;2022-08-19T15:58:01;24.40;80.10
68235;DHT22;55052;52.056;5.296;2022-08-19T16:00:56;24.40;80.50
68235;DHT22;55052;52.056;5.296;2022-08-19T16:03:44;24.50;80.90
68235;DHT22;55052;52.056;5.296;2022-08-19T16:06:31;24.50;81.30
68235;DHT22;55052;52.056;5.296;2022-08-19T16:08:59;24.60;81.10
68235;DHT22;55052;52.056;5.296;2022-08-19T16:11:32;24.70;81.10